Time;durP1;ratioP1;P1;durP2;ratioP2;P2;SDS_P1;SDS_P2;PMS_P1;PMS_P2;Temp;Humidity;BMP_temperature;BMP_pressure;BME280_temperature;BME280_humidity;BME280_pressure;Samples;Min_cycle;Max_cycle;Signal;HPM_P1;HPM_P2
2022/03/31 00:00:31;;;;;;;31.58;19.38;;;;;;;;;;5092102;28;20116;-66
2022/03/31 00:02:58;;;;;;;30.45;19.45;;;;;;;;;;5074032;28;20051;-65
2022/03/31 00:05:25;;;;;;;32.28;18.90;;;;;;;;;;5071973;28;20147;-67
2022/03/31 00:07:54;;;;;;;32.03;19.60;;;;;;;;;;5071923;28;20423;-67
2022/03/31 00:10:31;;;;;;;32.53;20.23;;;;;;;;;;5071765;28;20106;-67
2022/03/31 00:12:59;;;;;;;31.60;19.08;;;;;;;;;;5091106;28;20040;-66
2022/03/31 00:15:28;;;;;;;36.45;20.77;;;;;;;;;;5091836;28;20059;-66
2022/03/31 00:17:55;;;;;;;29.02;18.67;;;;;;;;;;5092030;28;20097;-66
2022/03/31 00:20:22;;;;;;;32.45;19.55;;;;;;;;;;5091899;28;20060;-65
2022/03/31 00:22:48;;;;;;;29.95;18.67;;;;;;;;;;5091587;28;20460;-67
2022/03/31 00:25:15;;;;;;;33.25;20.02;;;;;;;;;;5091778;28;20044;-66
2022/03/31 00:27:41;;;;;;;32.13;19.13;;;;;;;;;;5092226;28;20047;-67
2022/03/31 00:30:10;;;;;;;32.60;19.05;;;;;;;;;;5091578;28;20048;-66
2022/03/31 00:32:37;;;;;;;31.77;19.48;;;;;;;;;;5091523;28;20052;-67
2022/03/31 00:35:05;;;;;;;30.75;18.50;;;;;;;;;;5091738;28;20052;-66
2022/03/31 00:37:32;;;;;;;27.80;18.63;;;;;;;;;;5091847;28;20101;-66
2022/03/31 00:39:59;;;;;;;30.20;18.38;;;;;;;;;;5091646;28;20044;-67
2022/03/31 00:42:26;;;;;;;28.83;17.58;;;;;;;;;;5076600;28;20509;-66
2022/03/31 00:44:52;;;;;;;31.33;17.90;;;;;;;;;;5071548;28;20146;-66
2022/03/31 00:47:19;;;;;;;29.02;18.48;;;;;;;;;;5073400;28;20055;-67
2022/03/31 00:49:46;;;;;;;29.50;17.45;;;;;;;;;;5075442;28;20076;-67
2022/03/31 00:52:12;;;;;;;28.25;17.40;;;;;;;;;;5075171;28;20434;-65
2022/03/31 00:54:40;;;;;;;30.88;18.70;;;;;;;;;;5075048;28;20495;-66
2022/03/31 00:57:10;;;;;;;27.92;17.20;;;;;;;;;;5075170;28;20049;-65
2022/03/31 00:59:37;;;;;;;23.02;15.80;;;;;;;;;;5088133;28;20280;-66
2022/03/31 01:02:04;;;;;;;23.27;16.00;;;;;;;;;;5085885;28;20044;-66
2022/03/31 01:04:31;;;;;;;22.40;15.52;;;;;;;;;;5094928;28;20044;-67
2022/03/31 01:06:57;;;;;;;25.90;16.15;;;;;;;;;;5094827;28;20056;-66
2022/03/31 01:09:24;;;;;;;26.25;16.00;;;;;;;;;;5095164;28;20524;-67
2022/03/31 01:11:51;;;;;;;21.17;14.00;;;;;;;;;;5094711;28;20052;-66
2022/03/31 01:14:19;;;;;;;25.88;15.82;;;;;;;;;;5094634;28;20047;-66
2022/03/31 01:16:45;;;;;;;20.98;14.48;;;;;;;;;;5094621;28;20054;-68
2022/03/31 01:19:12;;;;;;;21.73;14.98;;;;;;;;;;5095040;28;20051;-66
2022/03/31 01:21:40;;;;;;;23.42;15.48;;;;;;;;;;5094761;28;20491;-65
2022/03/31 01:24:08;;;;;;;24.65;15.07;;;;;;;;;;5095047;28;20376;-68
2022/03/31 01:26:38;;;;;;;23.85;16.27;;;;;;;;;;5094835;28;20093;-67
2022/03/31 01:29:05;;;;;;;23.75;15.38;;;;;;;;;;5094798;28;20063;-67
2022/03/31 01:31:32;;;;;;;21.73;14.32;;;;;;;;;;5094502;28;20498;-66
2022/03/31 01:33:59;;;;;;;22.23;14.55;;;;;;;;;;5095014;28;20040;-67
2022/03/31 01:36:26;;;;;;;23.25;15.40;;;;;;;;;;5081552;28;20052;-67
2022/03/31 01:38:55;;;;;;;20.75;14.35;;;;;;;;;;5074671;28;20052;-68
2022/03/31 01:41:22;;;;;;;21.55;13.63;;;;;;;;;;5074693;28;20048;-66
2022/03/31 01:43:50;;;;;;;20.02;14.20;;;;;;;;;;5074265;28;20049;-67
2022/03/31 01:46:16;;;;;;;20.65;14.13;;;;;;;;;;5074301;28;20118;-66
2022/03/31 01:48:43;;;;;;;19.88;12.45;;;;;;;;;;5074329;28;20048;-66
2022/03/31 01:51:10;;;;;;;20.20;13.93;;;;;;;;;;5073994;28;20532;-67
2022/03/31 01:53:37;;;;;;;17.92;12.98;;;;;;;;;;5073923;28;20040;-67
2022/03/31 01:56:06;;;;;;;19.50;13.18;;;;;;;;;;5074178;28;20102;-66
2022/03/31 01:58:34;;;;;;;18.60;13.65;;;;;;;;;;5073257;28;20549;-67
2022/03/31 02:01:01;;;;;;;19.17;13.20;;;;;;;;;;5073879;28;20499;-67
2022/03/31 02:03:28;;;;;;;21.63;13.80;;;;;;;;;;5091955;28;20482;-67
2022/03/31 02:05:54;;;;;;;19.80;13.73;;;;;;;;;;5094188;28;20116;-66
2022/03/31 02:08:21;;;;;;;20.98;14.02;;;;;;;;;;5094351;28;20105;-67
2022/03/31 02:10:49;;;;;;;19.55;14.05;;;;;;;;;;5094060;28;20486;-68
2022/03/31 02:13:16;;;;;;;18.77;13.68;;;;;;;;;;5093033;28;20117;-67
2022/03/31 02:15:43;;;;;;;17.90;13.07;;;;;;;;;;5093997;28;20047;-67
2022/03/31 02:18:10;;;;;;;18.42;13.05;;;;;;;;;;5093815;28;20052;-67
2022/03/31 02:20:39;;;;;;;21.90;14.35;;;;;;;;;;5094076;28;20149;-67
2022/03/31 02:23:05;;;;;;;20.35;14.63;;;;;;;;;;5078828;28;20049;-67
2022/03/31 02:25:32;;;;;;;21.45;15.65;;;;;;;;;;5073599;28;20056;-67
2022/03/31 02:27:59;;;;;;;19.83;14.52;;;;;;;;;;5073458;28;20048;-66
2022/03/31 02:30:27;;;;;;;19.80;14.43;;;;;;;;;;5073366;28;20103;-67
2022/03/31 02:32:59;;;;;;;20.35;14.05;;;;;;;;;;5086526;28;20043;-68
2022/03/31 02:35:26;;;;;;;21.20;14.05;;;;;;;;;;5093850;28;20056;-65
2022/03/31 02:37:53;;;;;;;20.67;14.80;;;;;;;;;;5093710;28;20044;-65
2022/03/31 02:40:19;;;;;;;21.08;14.93;;;;;;;;;;5093477;28;20109;-66
2022/03/31 02:42:46;;;;;;;21.88;15.32;;;;;;;;;;5093248;28;20070;-66
2022/03/31 02:45:12;;;;;;;19.83;14.25;;;;;;;;;;5093429;28;20048;-64
2022/03/31 02:47:39;;;;;;;20.75;14.90;;;;;;;;;;5093353;28;20701;-64
2022/03/31 02:50:07;;;;;;;22.00;15.07;;;;;;;;;;5093435;28;20052;-66
2022/03/31 02:55:25;;;;;;;24.42;14.70;;;;;;;;;;5093365;28;20055;-64
2022/03/31 02:57:52;;;;;;;21.80;14.93;;;;;;;;;;5093090;28;20056;-66
2022/03/31 03:00:19;;;;;;;22.55;15.13;;;;;;;;;;5093265;28;20044;-66
2022/03/31 03:02:46;;;;;;;19.95;14.05;;;;;;;;;;5081790;28;20114;-65
2022/03/31 03:05:12;;;;;;;20.80;14.88;;;;;;;;;;5072718;28;20091;-65
2022/03/31 03:07:39;;;;;;;20.35;15.10;;;;;;;;;;5072760;28;20053;-65
2022/03/31 03:10:06;;;;;;;22.48;15.55;;;;;;;;;;5091701;28;20047;-66
2022/03/31 03:12:33;;;;;;;22.17;15.90;;;;;;;;;;5093427;28;20048;-64
2022/03/31 03:14:59;;;;;;;21.25;15.27;;;;;;;;;;5092907;28;20048;-63
2022/03/31 03:17:26;;;;;;;22.88;15.93;;;;;;;;;;5092966;28;20109;-65
2022/03/31 03:19:52;;;;;;;20.25;15.35;;;;;;;;;;5092823;28;20052;-64
2022/03/31 03:22:19;;;;;;;19.80;14.82;;;;;;;;;;5092511;28;20055;-64
2022/03/31 03:24:46;;;;;;;22.10;16.20;;;;;;;;;;5092467;28;20048;-64
2022/03/31 03:27:12;;;;;;;19.50;15.10;;;;;;;;;;5092523;28;20060;-65
2022/03/31 03:29:46;;;;;;;21.80;16.15;;;;;;;;;;5092686;28;20052;-65
2022/03/31 03:32:14;;;;;;;19.50;14.95;;;;;;;;;;5092220;28;20048;-66
2022/03/31 03:34:41;;;;;;;20.77;15.48;;;;;;;;;;5091293;28;20055;-66
2022/03/31 03:37:08;;;;;;;19.52;14.25;;;;;;;;;;5092418;28;20059;-66
2022/03/31 03:39:34;;;;;;;19.67;14.52;;;;;;;;;;5092441;28;20056;-66
2022/03/31 03:42:01;;;;;;;22.10;15.98;;;;;;;;;;5092040;28;20093;-66
2022/03/31 03:44:28;;;;;;;21.73;15.60;;;;;;;;;;5092144;28;20495;-65
2022/03/31 03:46:55;;;;;;;20.73;15.07;;;;;;;;;;5092377;28;20056;-65
2022/03/31 03:49:21;;;;;;;20.38;15.23;;;;;;;;;;5092182;28;20463;-66
2022/03/31 03:51:48;;;;;;;21.05;15.23;;;;;;;;;;5092001;28;20048;-65
2022/03/31 03:54:15;;;;;;;20.77;15.38;;;;;;;;;;5091994;28;20044;-65
2022/03/31 03:56:43;;;;;;;19.48;14.88;;;;;;;;;;5092321;28;20047;-64
2022/03/31 03:59:09;;;;;;;20.60;15.20;;;;;;;;;;5091885;28;20101;-66
2022/03/31 04:01:36;;;;;;;22.52;15.80;;;;;;;;;;5092120;28;20509;-65
2022/03/31 04:04:03;;;;;;;20.88;15.63;;;;;;;;;;5091804;28;20052;-64
2022/03/31 04:06:29;;;;;;;19.88;15.68;;;;;;;;;;5091959;28;20101;-65
2022/03/31 04:08:56;;;;;;;21.98;15.48;;;;;;;;;;5093959;28;20048;-66
2022/03/31 04:11:23;;;;;;;20.95;16.02;;;;;;;;;;5094968;28;20059;-65
2022/03/31 04:13:50;;;;;;;22.17;15.68;;;;;;;;;;5091861;28;20044;-65
2022/03/31 04:16:19;;;;;;;23.20;15.98;;;;;;;;;;5091755;28;20501;-65
2022/03/31 04:18:46;;;;;;;21.30;15.05;;;;;;;;;;5091977;28;20086;-65
2022/03/31 04:21:14;;;;;;;23.02;15.60;;;;;;;;;;5091117;28;20044;-65
2022/03/31 04:23:41;;;;;;;19.90;15.07;;;;;;;;;;5091699;28;20418;-65
2022/03/31 04:26:08;;;;;;;18.60;14.07;;;;;;;;;;5079743;28;20399;-65
2022/03/31 04:28:35;;;;;;;17.60;13.45;;;;;;;;;;5091702;28;20056;-64
2022/03/31 04:31:02;;;;;;;21.08;14.70;;;;;;;;;;5080262;28;20052;-66
2022/03/31 04:33:29;;;;;;;19.63;13.82;;;;;;;;;;5071206;28;20102;-66
2022/03/31 04:35:56;;;;;;;18.58;13.75;;;;;;;;;;5071943;28;20048;-64
2022/03/31 04:38:23;;;;;;;19.60;15.30;;;;;;;;;;5072213;28;20049;-65
2022/03/31 04:40:49;;;;;;;20.00;14.75;;;;;;;;;;5071460;28;20109;-65
2022/03/31 04:43:16;;;;;;;20.67;14.80;;;;;;;;;;5071548;28;20048;-64
2022/03/31 04:45:42;;;;;;;23.83;15.48;;;;;;;;;;5071503;28;20099;-65
2022/03/31 04:48:09;;;;;;;19.92;14.48;;;;;;;;;;5071436;28;20102;-65
2022/03/31 04:50:36;;;;;;;19.83;14.30;;;;;;;;;;5071292;28;20072;-66
2022/03/31 04:53:03;;;;;;;19.55;14.93;;;;;;;;;;5071151;28;20476;-66
2022/03/31 04:55:29;;;;;;;19.48;14.82;;;;;;;;;;5074590;28;20097;-65
2022/03/31 04:57:56;;;;;;;22.92;15.35;;;;;;;;;;5091988;28;20044;-65
2022/03/31 05:00:23;;;;;;;19.73;14.20;;;;;;;;;;5087012;28;20506;-66
2022/03/31 05:02:49;;;;;;;21.85;15.13;;;;;;;;;;5071186;28;20049;-66
2022/03/31 05:05:16;;;;;;;20.38;13.55;;;;;;;;;;5071378;28;20122;-65
2022/03/31 05:07:43;;;;;;;16.52;13.02;;;;;;;;;;5071079;28;20542;-65
2022/03/31 05:10:09;;;;;;;20.17;14.90;;;;;;;;;;5071442;28;20052;-66
2022/03/31 05:12:36;;;;;;;19.73;13.70;;;;;;;;;;5071019;28;20053;-65
2022/03/31 05:15:03;;;;;;;18.67;14.65;;;;;;;;;;5071171;28;20052;-65
2022/03/31 05:17:36;;;;;;;21.77;15.18;;;;;;;;;;5090760;28;20052;-65
2022/03/31 05:20:07;;;;;;;21.88;14.93;;;;;;;;;;5091759;28;20065;-65
2022/03/31 05:22:35;;;;;;;20.67;14.77;;;;;;;;;;5091238;28;20097;-66
2022/03/31 05:25:02;;;;;;;20.90;14.77;;;;;;;;;;5091503;28;20052;-65
2022/03/31 05:27:29;;;;;;;23.52;15.20;;;;;;;;;;5090991;28;20092;-65
2022/03/31 05:29:57;;;;;;;20.23;14.93;;;;;;;;;;5090991;28;20044;-65
2022/03/31 05:32:24;;;;;;;18.85;14.55;;;;;;;;;;5091120;28;20134;-66
2022/03/31 05:34:51;;;;;;;21.55;15.25;;;;;;;;;;5093857;28;20101;-65
2022/03/31 05:37:18;;;;;;;20.40;14.13;;;;;;;;;;5094801;28;20051;-65
2022/03/31 05:39:45;;;;;;;22.92;14.85;;;;;;;;;;5094572;28;20052;-65
2022/03/31 05:42:11;;;;;;;22.52;15.88;;;;;;;;;;5094205;28;20056;-65
2022/03/31 05:44:38;;;;;;;21.05;15.07;;;;;;;;;;5094557;28;20051;-65
2022/03/31 05:47:05;;;;;;;21.45;15.50;;;;;;;;;;5094738;28;20060;-64
2022/03/31 05:49:31;;;;;;;20.42;15.15;;;;;;;;;;5094590;28;20547;-65
2022/03/31 05:51:58;;;;;;;20.55;14.95;;;;;;;;;;5092925;28;20414;-64
2022/03/31 05:54:25;;;;;;;21.67;15.60;;;;;;;;;;5092527;28;20110;-65
2022/03/31 05:56:52;;;;;;;20.58;15.30;;;;;;;;;;5092103;28;20048;-64
2022/03/31 05:59:23;;;;;;;25.85;15.90;;;;;;;;;;5092336;28;20083;-64
2022/03/31 06:01:50;;;;;;;23.48;15.05;;;;;;;;;;5092300;28;20109;-64
2022/03/31 06:04:20;;;;;;;21.00;14.93;;;;;;;;;;5092184;28;20044;-65
2022/03/31 06:06:48;;;;;;;21.38;15.52;;;;;;;;;;5092224;28;20109;-65
2022/03/31 06:09:15;;;;;;;21.48;14.75;;;;;;;;;;5092306;28;20063;-65
2022/03/31 06:11:42;;;;;;;22.42;15.52;;;;;;;;;;5092527;28;20469;-65
2022/03/31 06:14:09;;;;;;;23.40;16.30;;;;;;;;;;5091983;28;20097;-65
2022/03/31 06:16:37;;;;;;;19.35;15.07;;;;;;;;;;5082843;28;20814;-65
2022/03/31 06:19:04;;;;;;;19.20;14.50;;;;;;;;;;5071277;28;20062;-65
2022/03/31 06:21:31;;;;;;;19.35;14.43;;;;;;;;;;5071483;28;20060;-65
2022/03/31 06:23:58;;;;;;;21.52;14.85;;;;;;;;;;5071379;28;20044;-64
2022/03/31 06:26:24;;;;;;;21.42;14.57;;;;;;;;;;5071625;28;20503;-65
2022/03/31 06:28:51;;;;;;;20.80;15.35;;;;;;;;;;5084500;28;20101;-65
2022/03/31 06:31:17;;;;;;;19.58;15.00;;;;;;;;;;5090108;28;20048;-65
2022/03/31 06:33:44;;;;;;;20.75;14.85;;;;;;;;;;5091430;28;20040;-64
2022/03/31 06:36:12;;;;;;;20.85;14.88;;;;;;;;;;5091897;28;20101;-65
2022/03/31 06:38:38;;;;;;;20.85;14.90;;;;;;;;;;5091753;28;20097;-64
2022/03/31 06:41:13;;;;;;;21.98;15.77;;;;;;;;;;5091417;28;20483;-64
2022/03/31 06:43:45;;;;;;;19.10;14.43;;;;;;;;;;5091340;28;20074;-65
2022/03/31 06:46:12;;;;;;;19.70;14.15;;;;;;;;;;5090581;28;20048;-65
2022/03/31 06:48:43;;;;;;;21.27;15.80;;;;;;;;;;5091058;28;20062;-65
2022/03/31 06:51:10;;;;;;;20.40;15.23;;;;;;;;;;5089925;28;20102;-65
2022/03/31 06:53:37;;;;;;;19.23;14.00;;;;;;;;;;5090576;28;20051;-64
2022/03/31 06:56:05;;;;;;;19.08;14.18;;;;;;;;;;5091289;28;20047;-64
2022/03/31 06:58:32;;;;;;;18.17;14.40;;;;;;;;;;5090745;28;20109;-65
2022/03/31 07:00:59;;;;;;;19.45;14.85;;;;;;;;;;5089764;28;20056;-64
2022/03/31 07:03:26;;;;;;;21.35;15.07;;;;;;;;;;5091127;28;20048;-64
2022/03/31 07:05:54;;;;;;;21.85;15.45;;;;;;;;;;5091483;28;20439;-65
2022/03/31 07:08:21;;;;;;;21.65;15.55;;;;;;;;;;5091584;28;20056;-69
2022/03/31 07:10:47;;;;;;;21.58;15.20;;;;;;;;;;5090789;28;20047;-64
2022/03/31 07:13:14;;;;;;;19.42;13.63;;;;;;;;;;5091110;28;20048;-65
2022/03/31 07:15:41;;;;;;;20.30;15.20;;;;;;;;;;5090528;28;20056;-65
2022/03/31 07:18:08;;;;;;;18.15;13.77;;;;;;;;;;5090033;28;20305;-64
2022/03/31 07:20:35;;;;;;;20.50;15.20;;;;;;;;;;5090675;28;20054;-64
2022/03/31 07:23:01;;;;;;;21.40;15.02;;;;;;;;;;5090926;28;20047;-64
2022/03/31 07:25:28;;;;;;;19.60;15.32;;;;;;;;;;5090252;28;20047;-64
2022/03/31 07:27:55;;;;;;;19.30;13.85;;;;;;;;;;5090758;28;20059;-64
2022/03/31 07:30:22;;;;;;;19.17;14.70;;;;;;;;;;5089847;28;20048;-63
2022/03/31 07:32:57;;;;;;;16.92;12.68;;;;;;;;;;5090193;28;20481;-64
2022/03/31 07:35:27;;;;;;;20.73;14.50;;;;;;;;;;5090346;28;20147;-65
2022/03/31 07:37:54;;;;;;;17.63;13.70;;;;;;;;;;5089919;28;20059;-64
2022/03/31 07:40:22;;;;;;;18.63;13.93;;;;;;;;;;5090381;28;20113;-64
2022/03/31 07:42:49;;;;;;;16.10;13.35;;;;;;;;;;5090190;28;20056;-64
2022/03/31 07:45:16;;;;;;;19.90;14.73;;;;;;;;;;5090385;28;20048;-64
2022/03/31 07:47:43;;;;;;;19.15;13.82;;;;;;;;;;5090511;28;20117;-64
2022/03/31 07:50:12;;;;;;;17.20;14.30;;;;;;;;;;5090098;28;20048;-64
2022/03/31 07:52:40;;;;;;;18.77;14.45;;;;;;;;;;5089769;28;20048;-64
2022/03/31 07:55:09;;;;;;;17.10;13.20;;;;;;;;;;5090138;28;20121;-64
2022/03/31 07:57:36;;;;;;;19.92;14.52;;;;;;;;;;5089162;28;20048;-64
2022/03/31 08:00:04;;;;;;;20.98;15.05;;;;;;;;;;5090294;28;20101;-64
2022/03/31 08:02:31;;;;;;;20.50;14.68;;;;;;;;;;5089588;28;20059;-65
2022/03/31 08:04:57;;;;;;;19.85;14.18;;;;;;;;;;5079777;28;20053;-64
2022/03/31 08:07:24;;;;;;;19.65;14.75;;;;;;;;;;5069966;28;20097;-63
2022/03/31 08:09:51;;;;;;;18.92;14.48;;;;;;;;;;5069904;28;20060;-64
2022/03/31 08:12:17;;;;;;;18.13;14.15;;;;;;;;;;5069350;28;20461;-64
2022/03/31 08:14:44;;;;;;;20.92;14.88;;;;;;;;;;5069990;28;20052;-63
2022/03/31 08:17:10;;;;;;;19.13;13.60;;;;;;;;;;5075509;28;20117;-63
2022/03/31 08:19:37;;;;;;;20.83;14.82;;;;;;;;;;5089981;28;20056;-64
2022/03/31 08:22:04;;;;;;;21.58;15.93;;;;;;;;;;5089003;28;20093;-64
2022/03/31 08:24:31;;;;;;;21.65;15.15;;;;;;;;;;5089254;28;20036;-64
2022/03/31 08:27:00;;;;;;;20.35;14.15;;;;;;;;;;5082593;28;20044;-64
2022/03/31 08:29:27;;;;;;;20.42;15.10;;;;;;;;;;5086179;28;20513;-64
2022/03/31 08:31:53;;;;;;;21.42;16.30;;;;;;;;;;5089031;28;20056;-63
2022/03/31 08:34:20;;;;;;;20.48;15.48;;;;;;;;;;5089644;28;20076;-65
2022/03/31 08:36:47;;;;;;;19.50;14.50;;;;;;;;;;5091203;28;20048;-65
2022/03/31 08:39:14;;;;;;;22.30;15.23;;;;;;;;;;5090956;28;20044;-65
2022/03/31 08:41:41;;;;;;;22.98;15.55;;;;;;;;;;5090518;28;20453;-65
2022/03/31 08:44:07;;;;;;;21.55;15.00;;;;;;;;;;5090195;28;20044;-64
2022/03/31 08:46:34;;;;;;;22.20;16.10;;;;;;;;;;5074144;28;20071;-65
2022/03/31 08:49:02;;;;;;;20.00;14.38;;;;;;;;;;5091422;28;20467;-67
2022/03/31 08:51:28;;;;;;;20.38;15.60;;;;;;;;;;5091395;28;20059;-66
2022/03/31 08:53:55;;;;;;;19.23;13.95;;;;;;;;;;5091129;28;20423;-66
2022/03/31 08:56:22;;;;;;;20.73;14.82;;;;;;;;;;5090460;28;20048;-66
2022/03/31 08:59:07;;;;;;;18.92;15.18;;;;;;;;;;5091189;28;20108;-67
2022/03/31 09:01:34;;;;;;;17.42;13.82;;;;;;;;;;5090375;28;20052;-66
2022/03/31 09:04:02;;;;;;;16.75;13.30;;;;;;;;;;5091107;28;20059;-67
2022/03/31 09:06:41;;;;;;;21.60;15.60;;;;;;;;;;5090261;28;20052;-68
2022/03/31 09:09:10;;;;;;;19.83;14.73;;;;;;;;;;5094526;28;20495;-68
2022/03/31 09:11:37;;;;;;;19.20;14.20;;;;;;;;;;5093857;28;20043;-65
2022/03/31 09:14:16;;;;;;;19.40;14.32;;;;;;;;;;5095071;28;20104;-66
2022/03/31 09:16:44;;;;;;;18.13;13.70;;;;;;;;;;5093915;28;20055;-66
2022/03/31 09:19:13;;;;;;;19.88;14.70;;;;;;;;;;5095069;28;20048;-65
2022/03/31 09:21:54;;;;;;;19.77;14.88;;;;;;;;;;5095018;28;20109;-64
2022/03/31 09:24:21;;;;;;;21.42;14.57;;;;;;;;;;5092865;28;20058;-65
2022/03/31 09:26:49;;;;;;;17.80;14.45;;;;;;;;;;5074664;28;20143;-66
2022/03/31 09:29:19;;;;;;;22.17;15.68;;;;;;;;;;5074399;28;20059;-69
2022/03/31 09:31:46;;;;;;;19.98;14.75;;;;;;;;;;5075467;28;20533;-72
2022/03/31 09:34:15;;;;;;;21.60;16.08;;;;;;;;;;5079622;28;20050;-70
2022/03/31 09:36:43;;;;;;;18.60;15.20;;;;;;;;;;5094580;28;20142;-73
2022/03/31 09:39:17;;;;;;;20.58;14.90;;;;;;;;;;5092396;28;20052;-73
2022/03/31 09:41:50;;;;;;;21.58;15.73;;;;;;;;;;5091810;28;20060;-72
2022/03/31 09:44:19;;;;;;;24.75;15.95;;;;;;;;;;5092479;28;20044;-65
2022/03/31 09:46:46;;;;;;;19.05;13.93;;;;;;;;;;5092353;28;20496;-67
2022/03/31 09:49:13;;;;;;;19.35;14.82;;;;;;;;;;5092410;28;20536;-68
2022/03/31 09:51:46;;;;;;;22.15;16.35;;;;;;;;;;5095490;28;20055;-70
2022/03/31 09:54:12;;;;;;;25.23;15.10;;;;;;;;;;5092180;28;20052;-64
2022/03/31 09:56:40;;;;;;;22.30;15.88;;;;;;;;;;5088555;28;20551;-64
2022/03/31 09:59:12;;;;;;;22.30;15.68;;;;;;;;;;5091828;28;20052;-67
2022/03/31 10:01:46;;;;;;;22.02;14.90;;;;;;;;;;5092199;28;20051;-69
2022/03/31 10:04:14;;;;;;;21.23;15.60;;;;;;;;;;5092178;28;20048;-64
2022/03/31 10:06:42;;;;;;;23.13;16.23;;;;;;;;;;5091202;28;20056;-68
2022/03/31 10:09:10;;;;;;;21.23;15.45;;;;;;;;;;5092162;28;20571;-60
2022/03/31 10:11:39;;;;;;;20.75;16.00;;;;;;;;;;5091788;28;20056;-72
2022/03/31 10:14:29;;;;;;;20.90;15.70;;;;;;;;;;5085291;28;20048;-70
2022/03/31 10:16:57;;;;;;;19.45;14.77;;;;;;;;;;5084711;28;20143;-68
2022/03/31 10:19:31;;;;;;;20.95;15.52;;;;;;;;;;5089510;28;20083;-67
2022/03/31 10:22:02;;;;;;;19.85;15.02;;;;;;;;;;5090325;28;20504;-67
2022/03/31 10:24:41;;;;;;;20.60;15.02;;;;;;;;;;5090247;28;20040;-69
2022/03/31 10:27:25;;;;;;;19.85;15.52;;;;;;;;;;5091473;28;20047;-66
2022/03/31 10:29:52;;;;;;;19.73;14.93;;;;;;;;;;5091421;28;20135;-65
2022/03/31 10:32:23;;;;;;;19.25;14.27;;;;;;;;;;5092154;28;20048;-68
2022/03/31 10:34:53;;;;;;;19.90;14.32;;;;;;;;;;5090042;28;20062;-74
2022/03/31 10:37:39;;;;;;;18.02;14.70;;;;;;;;;;5089938;28;20494;-63
2022/03/31 10:40:09;;;;;;;20.85;14.32;;;;;;;;;;5091350;28;20097;-67
2022/03/31 10:42:37;;;;;;;19.23;13.52;;;;;;;;;;5091298;28;20054;-69
2022/03/31 10:45:12;;;;;;;20.08;15.45;;;;;;;;;;5090414;28;20097;-68
2022/03/31 10:47:43;;;;;;;18.83;14.63;;;;;;;;;;5089163;28;20082;-72
2022/03/31 10:50:25;;;;;;;20.63;14.00;;;;;;;;;;5089514;28;20048;-72
2022/03/31 10:52:59;;;;;;;20.65;14.95;;;;;;;;;;5087008;28;20123;-71
2022/03/31 10:55:41;;;;;;;19.65;15.10;;;;;;;;;;5098883;28;20040;-72
2022/03/31 10:58:19;;;;;;;18.50;14.27;;;;;;;;;;5072282;28;20055;-65
2022/03/31 11:00:46;;;;;;;18.17;14.48;;;;;;;;;;5090767;28;20048;-66
2022/03/31 11:03:16;;;;;;;19.75;14.77;;;;;;;;;;5090204;28;20052;-65
2022/03/31 11:05:44;;;;;;;20.23;15.23;;;;;;;;;;5090009;28;20089;-66
2022/03/31 11:08:16;;;;;;;19.50;14.98;;;;;;;;;;5091257;28;20056;-66
2022/03/31 11:10:49;;;;;;;20.38;13.80;;;;;;;;;;5091436;28;20105;-66
2022/03/31 11:13:18;;;;;;;21.50;14.55;;;;;;;;;;5092431;28;20052;-66
2022/03/31 11:15:54;;;;;;;19.92;14.68;;;;;;;;;;5092068;28;20552;-66
2022/03/31 11:18:21;;;;;;;23.33;14.07;;;;;;;;;;5092453;28;20495;-65
2022/03/31 11:20:59;;;;;;;23.10;14.82;;;;;;;;;;5088860;28;20117;-65
2022/03/31 11:23:27;;;;;;;21.45;15.27;;;;;;;;;;5090449;28;20529;-65
2022/03/31 11:25:55;;;;;;;18.98;14.52;;;;;;;;;;5091063;28;20075;-65
2022/03/31 11:28:22;;;;;;;22.20;15.02;;;;;;;;;;5091184;28;20441;-66
2022/03/31 11:30:49;;;;;;;21.67;15.13;;;;;;;;;;5089843;28;20101;-63
2022/03/31 11:33:16;;;;;;;18.67;14.18;;;;;;;;;;5090865;28;20048;-63
2022/03/31 11:35:43;;;;;;;19.15;14.10;;;;;;;;;;5088853;28;20047;-64
2022/03/31 11:38:17;;;;;;;22.55;15.23;;;;;;;;;;5090667;28;20047;-63
2022/03/31 11:40:49;;;;;;;21.75;14.98;;;;;;;;;;5090474;28;20526;-63
2022/03/31 11:43:17;;;;;;;19.50;13.90;;;;;;;;;;5090480;28;20048;-63
2022/03/31 11:45:47;;;;;;;20.02;14.88;;;;;;;;;;5090514;28;20098;-63
2022/03/31 11:48:30;;;;;;;19.80;14.15;;;;;;;;;;5090754;28;20161;-63
2022/03/31 11:50:59;;;;;;;19.58;14.43;;;;;;;;;;5089363;28;20422;-64
2022/03/31 11:53:45;;;;;;;23.67;15.73;;;;;;;;;;5089588;28;20052;-64
2022/03/31 11:56:21;;;;;;;20.77;15.30;;;;;;;;;;5089482;28;20050;-64
2022/03/31 11:58:50;;;;;;;20.92;14.95;;;;;;;;;;5088287;28;20106;-64
2022/03/31 12:01:20;;;;;;;21.17;14.77;;;;;;;;;;5089933;28;20085;-64
2022/03/31 12:03:47;;;;;;;20.95;14.60;;;;;;;;;;5089661;28;20434;-64
2022/03/31 12:06:15;;;;;;;20.13;14.65;;;;;;;;;;5089263;28;20093;-64
2022/03/31 12:08:42;;;;;;;24.35;15.35;;;;;;;;;;5088179;28;20052;-64
2022/03/31 12:11:10;;;;;;;19.65;14.77;;;;;;;;;;5088610;28;20048;-64
2022/03/31 12:13:51;;;;;;;21.80;14.85;;;;;;;;;;5088647;28;20052;-65
2022/03/31 12:16:19;;;;;;;20.58;14.27;;;;;;;;;;5089517;28;20093;-63
2022/03/31 12:18:55;;;;;;;20.73;14.10;;;;;;;;;;5090154;28;20072;-64
2022/03/31 12:21:24;;;;;;;19.48;14.48;;;;;;;;;;5089147;28;20044;-64
2022/03/31 12:23:50;;;;;;;21.52;15.32;;;;;;;;;;5089292;28;20052;-64
2022/03/31 12:26:37;;;;;;;21.65;15.05;;;;;;;;;;5086512;28;20099;-64
2022/03/31 12:29:14;;;;;;;20.15;15.25;;;;;;;;;;5088900;28;20047;-64
2022/03/31 12:31:43;;;;;;;20.38;14.68;;;;;;;;;;5089555;28;20056;-64
2022/03/31 12:34:14;;;;;;;19.67;14.70;;;;;;;;;;5089605;28;20044;-64
2022/03/31 12:36:41;;;;;;;19.85;14.32;;;;;;;;;;5089643;28;20101;-64
2022/03/31 12:39:08;;;;;;;18.95;14.27;;;;;;;;;;5085110;28;20056;-64
2022/03/31 12:41:36;;;;;;;19.52;15.10;;;;;;;;;;5089708;28;20047;-64
2022/03/31 12:44:17;;;;;;;23.52;14.25;;;;;;;;;;5092723;28;20117;-64
2022/03/31 12:46:59;;;;;;;21.33;15.93;;;;;;;;;;5092938;28;20048;-64
2022/03/31 12:49:33;;;;;;;21.43;14.90;;;;;;;;;;5093205;28;20449;-64
2022/03/31 12:52:03;;;;;;;20.70;13.80;;;;;;;;;;5093465;28;20472;-65
2022/03/31 12:54:35;;;;;;;20.58;14.32;;;;;;;;;;5093278;28;20047;-64
2022/03/31 12:57:21;;;;;;;21.10;13.73;;;;;;;;;;5093169;28;20406;-65
2022/03/31 13:00:00;;;;;;;22.92;14.48;;;;;;;;;;5092918;28;20052;-64
2022/03/31 13:02:39;;;;;;;19.88;13.85;;;;;;;;;;5091969;28;20537;-64
2022/03/31 13:05:06;;;;;;;21.88;15.38;;;;;;;;;;5093801;28;20052;-65
2022/03/31 13:07:33;;;;;;;20.27;13.90;;;;;;;;;;5093310;28;20090;-64
2022/03/31 13:10:00;;;;;;;23.25;16.17;;;;;;;;;;5092686;28;20052;-64
2022/03/31 13:12:29;;;;;;;21.77;14.80;;;;;;;;;;5093165;28;20052;-64
2022/03/31 13:14:56;;;;;;;20.55;14.90;;;;;;;;;;5089222;28;20052;-64
2022/03/31 13:17:23;;;;;;;20.92;14.80;;;;;;;;;;5092936;28;20059;-64
2022/03/31 13:19:51;;;;;;;19.50;14.88;;;;;;;;;;5083585;28;20105;-68
2022/03/31 13:22:22;;;;;;;21.80;15.13;;;;;;;;;;5093584;28;20048;-69
2022/03/31 13:24:48;;;;;;;18.88;14.02;;;;;;;;;;5091953;28;20097;-73
2022/03/31 13:27:17;;;;;;;20.05;14.45;;;;;;;;;;5090558;28;20506;-71
2022/03/31 13:29:44;;;;;;;19.75;14.30;;;;;;;;;;5093004;28;20052;-70
2022/03/31 13:32:11;;;;;;;20.08;14.32;;;;;;;;;;5092871;28;20105;-71
2022/03/31 13:34:41;;;;;;;22.75;15.85;;;;;;;;;;5091480;28;20496;-71
2022/03/31 13:37:08;;;;;;;22.23;15.75;;;;;;;;;;5091356;28;20056;-71
2022/03/31 13:39:36;;;;;;;20.08;14.40;;;;;;;;;;5092670;28;20093;-71
2022/03/31 13:42:04;;;;;;;18.92;13.63;;;;;;;;;;5092761;28;20048;-74
2022/03/31 13:44:35;;;;;;;20.25;13.85;;;;;;;;;;5091502;28;20529;-71
2022/03/31 13:47:03;;;;;;;21.80;14.95;;;;;;;;;;5090533;28;20426;-66
2022/03/31 13:49:30;;;;;;;21.90;14.82;;;;;;;;;;5090734;28;20044;-71
2022/03/31 13:51:57;;;;;;;23.58;14.55;;;;;;;;;;5092447;28;20063;-71
2022/03/31 13:54:25;;;;;;;22.75;16.20;;;;;;;;;;5090347;28;20044;-68
2022/03/31 13:56:52;;;;;;;20.52;14.32;;;;;;;;;;5092599;28;20052;-72
2022/03/31 14:02:08;;;;;;;22.63;15.50;;;;;;;;;;5089409;28;20384;-67
2022/03/31 14:04:36;;;;;;;24.73;16.05;;;;;;;;;;5091809;28;20063;-70
2022/03/31 14:07:06;;;;;;;26.25;17.80;;;;;;;;;;5090855;28;20044;-69
2022/03/31 14:09:35;;;;;;;26.80;17.05;;;;;;;;;;5092198;28;20117;-71
2022/03/31 14:12:03;;;;;;;26.02;17.58;;;;;;;;;;5087741;28;20052;-74
2022/03/31 14:14:29;;;;;;;27.27;17.63;;;;;;;;;;5090770;28;20051;-69
2022/03/31 14:16:57;;;;;;;23.67;16.05;;;;;;;;;;5091595;28;20048;-70
2022/03/31 14:19:33;;;;;;;31.75;18.40;;;;;;;;;;5092124;28;20048;-73
2022/03/31 14:22:02;;;;;;;29.38;17.80;;;;;;;;;;5090268;28;20052;-68
2022/03/31 14:24:28;;;;;;;26.70;18.45;;;;;;;;;;5092223;28;20077;-69
2022/03/31 14:26:55;;;;;;;30.55;18.08;;;;;;;;;;5091602;28;20055;-70
2022/03/31 14:29:22;;;;;;;27.77;18.08;;;;;;;;;;5101001;28;20050;-72